createdAt,value
2022-10-26T00:01:56.165Z,88.69
2022-10-26T00:04:22.597Z,88.66
2022-10-26T00:06:48.964Z,88.96
2022-10-26T00:09:15.342Z,89.05
2022-10-26T00:11:41.676Z,89.47
2022-10-26T00:14:08.050Z,89.46
2022-10-26T00:16:37.396Z,90.41
2022-10-26T00:19:03.766Z,90.04
2022-10-26T00:21:30.216Z,89.71
2022-10-26T00:23:56.567Z,90.11
2022-10-26T00:26:22.977Z,89.95
2022-10-26T00:28:53.132Z,90.45
2022-10-26T00:31:22.995Z,90.58
2022-10-26T00:33:53.946Z,90.35
2022-10-26T00:36:20.856Z,89.93
2022-10-26T00:38:54.933Z,90.24
2022-10-26T00:41:23.954Z,89.36
2022-10-26T00:43:50.697Z,89.05
2022-10-26T00:46:22.043Z,89.51
2022-10-26T00:48:56.025Z,89.42
2022-10-26T00:51:27.480Z,89.05
2022-10-26T00:53:55.023Z,88.88
2022-10-26T00:56:21.662Z,88.48
2022-10-26T00:58:48.530Z,88.83
2022-10-26T01:01:15.556Z,89.64
2022-10-26T01:03:43.059Z,89.39
2022-10-26T01:06:11.613Z,89.51
2022-10-26T01:08:38.822Z,89.31
2022-10-26T01:11:06.027Z,89.10
2022-10-26T01:13:36.993Z,88.95
2022-10-26T01:16:25.855Z,90.02
2022-10-26T01:18:55.288Z,89.35
2022-10-26T01:21:43.500Z,90.49
2022-10-26T01:24:09.939Z,89.48
2022-10-26T01:26:42.190Z,89.98
2022-10-26T01:29:28.912Z,90.63
2022-10-26T01:32:11.708Z,90.60
2022-10-26T01:34:47.206Z,90.71
2022-10-26T01:37:37.282Z,91.36
2022-10-26T01:40:14.601Z,90.52
2022-10-26T01:42:44.639Z,90.38
2022-10-26T01:45:14.723Z,90.26
2022-10-26T01:47:41.808Z,90.27
2022-10-26T01:50:10.027Z,90.80
2022-10-26T01:52:36.495Z,90.97
2022-10-26T01:55:07.537Z,91.55
2022-10-26T01:57:36.902Z,91.67
2022-10-26T02:00:03.502Z,91.45
2022-10-26T02:02:46.074Z,92.84
2022-10-26T02:05:31.329Z,91.54
2022-10-26T02:08:39.009Z,93.03
2022-10-26T02:11:17.419Z,91.65
2022-10-26T02:13:52.530Z,92.21
2022-10-26T02:16:25.698Z,93.09
2022-10-26T02:19:05.693Z,93.70
2022-10-26T02:21:41.338Z,92.71
2022-10-26T02:24:12.423Z,92.44
2022-10-26T02:26:41.629Z,92.23
2022-10-26T02:29:11.368Z,93.03
2022-10-26T02:31:40.540Z,92.01
2022-10-26T02:34:10.891Z,91.99
2022-10-26T02:36:42.242Z,92.59
2022-10-26T02:39:11.135Z,92.20
2022-10-26T02:41:40.492Z,92.36
2022-10-26T02:44:24.890Z,93.24
2022-10-26T02:46:52.324Z,91.95
2022-10-26T02:49:19.645Z,92.05
2022-10-26T02:52:09.169Z,93.13
2022-10-26T02:54:48.540Z,92.30
2022-10-26T02:57:41.882Z,91.84
2022-10-26T03:00:12.148Z,91.62
2022-10-26T03:02:38.451Z,92.03
2022-10-26T03:05:13.231Z,91.96
2022-10-26T03:07:39.616Z,92.19
2022-10-26T03:10:06.645Z,92.03
2022-10-26T03:12:33.022Z,92.28
2022-10-26T03:14:59.359Z,92.61
2022-10-26T03:17:25.795Z,92.77
2022-10-26T03:19:52.234Z,93.19
2022-10-26T03:22:18.635Z,92.69
2022-10-26T03:24:46.152Z,93.04
2022-10-26T03:27:12.522Z,93.02
2022-10-26T03:29:38.982Z,92.88
2022-10-26T03:32:05.942Z,92.82
2022-10-26T03:34:32.424Z,93.24
2022-10-26T03:36:58.871Z,93.38
2022-10-26T03:39:25.339Z,93.21
2022-10-26T03:41:51.793Z,93.20
2022-10-26T03:44:18.259Z,93.51
2022-10-26T03:46:44.799Z,93.57
2022-10-26T03:49:11.261Z,93.46
2022-10-26T03:51:37.790Z,93.41
2022-10-26T03:54:04.883Z,93.37
2022-10-26T03:56:31.363Z,93.44
2022-10-26T03:58:58.053Z,93.98
2022-10-26T04:01:24.519Z,93.61
2022-10-26T04:03:50.951Z,93.57
2022-10-26T04:06:17.513Z,93.89
2022-10-26T04:08:43.877Z,93.82
2022-10-26T04:11:10.271Z,94.10
2022-10-26T04:13:36.719Z,93.87
2022-10-26T04:16:03.127Z,94.14
2022-10-26T04:18:29.489Z,93.84
2022-10-26T04:20:55.895Z,94.33
2022-10-26T04:23:22.478Z,93.76
2022-10-26T04:25:48.867Z,93.53
2022-10-26T04:28:15.301Z,93.82
2022-10-26T04:30:41.938Z,94.08
2022-10-26T04:33:08.478Z,94.36
2022-10-26T04:35:35.243Z,94.38
2022-10-26T04:38:03.792Z,94.46
2022-10-26T04:40:31.391Z,94.56
2022-10-26T04:42:57.800Z,94.70
2022-10-26T04:45:24.538Z,95.09
2022-10-26T04:48:02.508Z,95.42
2022-10-26T04:50:29.003Z,95.12
2022-10-26T04:52:55.396Z,95.35
2022-10-26T04:55:21.880Z,95.33
2022-10-26T04:57:48.579Z,95.27
2022-10-26T05:00:15.356Z,95.11
2022-10-26T05:02:41.734Z,95.29
2022-10-26T05:05:11.214Z,95.82
2022-10-26T05:07:40.551Z,95.95
2022-10-26T05:10:08.034Z,95.82
2022-10-26T05:12:34.716Z,95.53
2022-10-26T05:15:03.911Z,95.17
2022-10-26T05:17:32.760Z,95.42
2022-10-26T05:20:00.495Z,94.88
2022-10-26T05:22:27.407Z,95.05
2022-10-26T05:24:53.876Z,95.57
2022-10-26T05:27:20.692Z,95.29
2022-10-26T05:29:47.072Z,94.94
2022-10-26T05:32:13.421Z,95.04
2022-10-26T05:34:41.534Z,95.47
2022-10-26T05:37:08.038Z,94.91
2022-10-26T05:39:37.526Z,95.37
2022-10-26T05:42:03.930Z,95.39
2022-10-26T05:44:30.288Z,95.08
2022-10-26T05:46:56.619Z,95.68
2022-10-26T05:49:23.128Z,95.41
2022-10-26T05:51:49.739Z,96.00
2022-10-26T05:54:16.139Z,95.81
2022-10-26T05:56:42.852Z,95.79
2022-10-26T05:59:14.833Z,96.28
2022-10-26T06:01:57.344Z,97.18
2022-10-26T06:04:38.471Z,96.77
2022-10-26T06:07:11.744Z,96.42
2022-10-26T06:09:39.350Z,95.53
2022-10-26T06:12:07.511Z,95.67
2022-10-26T06:14:35.212Z,95.96
2022-10-26T06:17:09.504Z,95.85
2022-10-26T06:20:00.386Z,96.46
2022-10-26T06:22:52.129Z,96.70
2022-10-26T06:25:33.905Z,96.72
2022-10-26T06:28:11.594Z,96.30
2022-10-26T06:30:40.380Z,96.31
2022-10-26T06:33:18.421Z,96.49
2022-10-26T06:36:08.179Z,96.49
2022-10-26T06:38:36.464Z,96.66
2022-10-26T06:41:03.718Z,96.72
2022-10-26T06:43:34.648Z,96.79
2022-10-26T06:46:29.981Z,98.14
2022-10-26T06:49:22.197Z,97.79
2022-10-26T06:51:58.583Z,97.71
2022-10-26T06:54:49.555Z,98.22
2022-10-26T06:57:18.765Z,97.97
2022-10-26T06:59:54.379Z,98.27
2022-10-26T07:02:21.096Z,98.02
2022-10-26T07:04:47.803Z,97.65
2022-10-26T07:07:22.121Z,98.13
2022-10-26T07:09:49.396Z,97.72
2022-10-26T07:12:15.906Z,98.28
2022-10-26T07:14:42.320Z,98.26
2022-10-26T07:17:10.132Z,98.53
2022-10-26T07:19:36.562Z,98.93
2022-10-26T07:22:03.195Z,99.48
2022-10-26T07:24:30.282Z,99.54
2022-10-26T07:26:57.955Z,99.72
2022-10-26T07:29:25.959Z,100.00
2022-10-26T07:34:20.339Z,100.00
2022-10-26T07:36:46.837Z,100.00
2022-10-26T07:39:13.202Z,100.00
2022-10-26T07:41:39.574Z,100.00
2022-10-26T07:44:05.933Z,100.00
2022-10-26T07:46:32.307Z,100.00
2022-10-26T07:48:58.753Z,100.00
2022-10-26T07:51:25.740Z,100.00
2022-10-26T07:53:52.131Z,100.00
2022-10-26T07:56:18.662Z,100.00
2022-10-26T07:58:45.178Z,100.00
2022-10-26T08:01:14.294Z,100.00
2022-10-26T08:03:41.717Z,100.00
2022-10-26T08:06:09.493Z,100.00
2022-10-26T08:08:36.471Z,100.00
2022-10-26T08:11:03.783Z,100.00
2022-10-26T08:13:30.381Z,100.00
2022-10-26T08:16:01.497Z,100.00
2022-10-26T08:18:28.411Z,100.00
2022-10-26T08:21:01.796Z,100.00
2022-10-26T08:23:37.872Z,100.00
2022-10-26T08:26:05.033Z,100.00
2022-10-26T08:28:31.542Z,100.00
2022-10-26T08:30:58.140Z,100.00
2022-10-26T08:33:25.435Z,100.00
2022-10-26T08:35:59.368Z,100.00
2022-10-26T08:38:26.183Z,99.52
2022-10-26T08:40:53.835Z,98.76
2022-10-26T08:43:29.338Z,98.33
2022-10-26T08:46:11.203Z,97.83
2022-10-26T08:48:47.479Z,97.54
2022-10-26T08:51:35.291Z,97.54
2022-10-26T08:54:18.006Z,97.72
2022-10-26T08:56:50.895Z,95.26
2022-10-26T08:59:37.356Z,96.56
2022-10-26T09:02:04.004Z,93.00
2022-10-26T09:04:32.237Z,91.77
2022-10-26T09:07:22.735Z,93.67
2022-10-26T09:10:20.164Z,92.92
2022-10-26T09:13:00.217Z,90.33
2022-10-26T09:15:32.620Z,88.69
2022-10-26T09:18:27.131Z,88.75
2022-10-26T09:20:56.346Z,86.74
2022-10-26T09:23:59.304Z,86.54
2022-10-26T09:26:41.941Z,84.20
2022-10-26T09:29:13.387Z,83.43
2022-10-26T09:31:43.505Z,80.04
2022-10-26T09:34:31.528Z,78.62
2022-10-26T09:36:58.187Z,77.74
2022-10-26T09:39:30.099Z,77.66
2022-10-26T09:42:01.137Z,75.79
2022-10-26T09:44:39.366Z,75.46
2022-10-26T09:47:38.337Z,74.24
2022-10-26T09:50:26.078Z,72.72
2022-10-26T09:52:52.815Z,68.24
2022-10-26T09:55:22.876Z,68.07
2022-10-26T09:57:56.068Z,68.32
2022-10-26T10:00:25.148Z,65.61
2022-10-26T10:02:56.698Z,65.41
2022-10-26T10:05:52.131Z,65.04
2022-10-26T10:08:23.293Z,62.13
2022-10-26T10:11:03.668Z,63.76
2022-10-26T10:13:32.870Z,60.33
2022-10-26T10:16:06.032Z,61.26
2022-10-26T10:18:33.777Z,59.75
2022-10-26T10:21:00.833Z,59.78
2022-10-26T10:23:54.358Z,61.98
2022-10-26T10:26:20.763Z,57.96
2022-10-26T10:29:01.049Z,58.48
2022-10-26T10:31:32.526Z,56.90
2022-10-26T10:33:59.410Z,56.27
2022-10-26T10:36:31.656Z,56.06
2022-10-26T10:38:58.111Z,55.30
2022-10-26T10:41:36.637Z,56.58
2022-10-26T10:44:18.045Z,56.17
2022-10-26T10:46:44.510Z,55.19
2022-10-26T10:49:24.496Z,56.65
2022-10-26T10:51:51.500Z,56.14
2022-10-26T10:54:37.806Z,55.21
2022-10-26T10:57:19.805Z,56.12
2022-10-26T10:59:55.511Z,56.98
2022-10-26T11:02:51.457Z,55.90
2022-10-26T11:05:48.831Z,55.93
2022-10-26T11:08:35.458Z,55.51
2022-10-26T11:11:10.947Z,53.80
2022-10-26T11:13:49.716Z,54.77
2022-10-26T11:16:30.955Z,54.36
2022-10-26T11:19:16.117Z,53.40
2022-10-26T11:21:45.584Z,52.78
2022-10-26T11:24:21.459Z,52.80
2022-10-26T11:26:53.928Z,53.01
2022-10-26T11:29:27.937Z,52.25
2022-10-26T11:32:01.701Z,51.57
2022-10-26T11:34:59.183Z,52.38
2022-10-26T11:37:32.530Z,51.00
2022-10-26T11:40:42.906Z,51.90
2022-10-26T11:43:18.762Z,51.19
2022-10-26T11:45:46.881Z,51.44
2022-10-26T11:48:20.128Z,51.50
2022-10-26T11:50:52.332Z,51.73
2022-10-26T11:53:23.224Z,51.58
2022-10-26T11:55:53.249Z,51.05
2022-10-26T11:58:24.055Z,51.04
2022-10-26T12:01:13.892Z,51.65
2022-10-26T12:03:45.583Z,53.48
2022-10-26T12:06:15.179Z,49.95
2022-10-26T12:08:50.939Z,50.50
2022-10-26T12:11:38.936Z,49.81
2022-10-26T12:14:12.759Z,50.61
2022-10-26T12:16:48.643Z,49.33
2022-10-26T12:19:44.559Z,49.33
2022-10-26T12:22:14.398Z,50.02
2022-10-26T12:24:45.612Z,49.50
2022-10-26T12:27:44.413Z,51.01
2022-10-26T12:30:18.712Z,49.59
2022-10-26T12:32:45.008Z,49.48
2022-10-26T12:35:41.903Z,49.88
2022-10-26T12:38:31.672Z,49.47
2022-10-26T12:41:09.913Z,48.18
2022-10-26T12:43:40.849Z,47.96
2022-10-26T12:46:13.510Z,48.12
2022-10-26T12:48:50.985Z,48.57
2022-10-26T12:51:23.068Z,47.46
2022-10-26T12:54:04.678Z,47.14
2022-10-26T12:56:41.958Z,47.47
2022-10-26T12:59:26.938Z,47.00
2022-10-26T13:02:02.208Z,47.88
2022-10-26T13:04:53.308Z,47.41
2022-10-26T13:07:25.086Z,47.60
2022-10-26T13:10:02.706Z,47.48
2022-10-26T13:12:38.192Z,47.43
2022-10-26T13:15:35.388Z,48.28
2022-10-26T13:18:09.778Z,48.54
2022-10-26T13:20:52.867Z,49.18
2022-10-26T13:23:26.569Z,48.63
2022-10-26T13:26:02.353Z,48.67
2022-10-26T13:28:37.742Z,49.09
2022-10-26T13:31:35.114Z,48.50
2022-10-26T13:34:20.856Z,49.66
2022-10-26T13:37:08.323Z,48.83
2022-10-26T13:39:41.900Z,49.71
2022-10-26T13:42:15.805Z,49.38
2022-10-26T13:44:51.204Z,48.51
2022-10-26T13:47:27.476Z,49.29
2022-10-26T13:49:58.762Z,49.96
2022-10-26T13:52:53.579Z,50.78
2022-10-26T13:55:31.220Z,50.45
2022-10-26T13:58:22.394Z,51.22
2022-10-26T14:01:16.422Z,51.20
2022-10-26T14:03:43.138Z,51.73
2022-10-26T14:06:27.619Z,52.38
2022-10-26T14:08:57.619Z,52.66
2022-10-26T14:11:32.616Z,53.13
2022-10-26T14:14:00.008Z,53.93
2022-10-26T14:16:30.278Z,54.42
2022-10-26T14:18:57.242Z,54.22
2022-10-26T14:21:23.823Z,54.61
2022-10-26T14:23:56.094Z,56.38
2022-10-26T14:26:25.635Z,56.53
2022-10-26T14:28:55.083Z,56.02
2022-10-26T14:31:32.724Z,56.13
2022-10-26T14:34:01.559Z,55.83
2022-10-26T14:36:37.429Z,55.85
2022-10-26T14:39:09.380Z,55.80
2022-10-26T14:41:36.335Z,54.61
2022-10-26T14:44:04.807Z,54.86
2022-10-26T14:46:35.275Z,54.52
2022-10-26T14:49:03.262Z,54.53
2022-10-26T14:51:34.921Z,54.09
2022-10-26T14:54:03.272Z,54.42
2022-10-26T14:56:35.390Z,52.89
2022-10-26T14:59:23.234Z,53.80
2022-10-26T15:01:53.438Z,53.86
2022-10-26T15:04:33.891Z,54.59
2022-10-26T15:07:12.351Z,55.29
2022-10-26T15:09:42.890Z,55.73
2022-10-26T15:12:34.679Z,55.86
2022-10-26T15:17:54.475Z,57.64
2022-10-26T15:20:23.362Z,58.03
2022-10-26T15:23:01.859Z,58.87
2022-10-26T15:25:30.542Z,59.73
2022-10-26T15:28:23.741Z,60.42
2022-10-26T15:31:24.491Z,59.60
2022-10-26T15:33:50.773Z,60.57
2022-10-26T15:36:20.731Z,61.33
2022-10-26T15:38:51.859Z,62.26
2022-10-26T15:41:21.394Z,63.21
2022-10-26T15:43:52.320Z,63.62
2022-10-26T15:46:22.895Z,64.93
2022-10-26T15:48:55.448Z,65.68
2022-10-26T15:51:21.936Z,65.51
2022-10-26T15:53:51.015Z,65.74
2022-10-26T15:56:20.042Z,66.90
2022-10-26T15:58:47.094Z,66.95
2022-10-26T16:01:17.029Z,67.84
2022-10-26T16:03:43.866Z,68.09
2022-10-26T16:06:27.476Z,69.13
2022-10-26T16:08:56.912Z,69.56
2022-10-26T16:11:23.426Z,70.08
2022-10-26T16:16:18.682Z,71.17
2022-10-26T16:18:46.167Z,71.56
2022-10-26T16:21:14.663Z,71.69
2022-10-26T16:23:41.715Z,71.98
2022-10-26T16:26:08.518Z,72.28
2022-10-26T16:28:36.156Z,72.55
2022-10-26T16:31:05.510Z,72.87
2022-10-26T16:33:32.001Z,72.66
2022-10-26T16:35:59.637Z,73.18
2022-10-26T16:38:27.428Z,73.27
2022-10-26T16:41:04.694Z,73.85
2022-10-26T16:43:32.745Z,73.41
2022-10-26T16:46:00.183Z,74.08
2022-10-26T16:48:26.701Z,74.19
2022-10-26T16:50:56.148Z,74.99
2022-10-26T16:53:23.623Z,75.00
2022-10-26T16:55:50.032Z,75.01
2022-10-26T16:58:16.516Z,75.74
2022-10-26T17:00:42.897Z,76.00
2022-10-26T17:03:09.318Z,76.81
2022-10-26T17:05:35.662Z,76.75
2022-10-26T17:08:02.090Z,76.84
2022-10-26T17:10:28.649Z,77.22
2022-10-26T17:12:55.540Z,77.80
2022-10-26T17:15:23.280Z,77.86
2022-10-26T17:17:51.648Z,78.58
2022-10-26T17:20:18.092Z,78.68
2022-10-26T17:22:44.452Z,79.18
2022-10-26T17:25:10.817Z,78.88
2022-10-26T17:27:37.191Z,79.95
2022-10-26T17:30:03.797Z,80.30
2022-10-26T17:32:30.734Z,80.47
2022-10-26T17:34:57.110Z,80.68
2022-10-26T17:37:23.559Z,81.50
2022-10-26T17:39:49.950Z,81.90
2022-10-26T17:42:16.317Z,82.20
2022-10-26T17:44:42.667Z,82.76
2022-10-26T17:47:09.830Z,82.71
2022-10-26T17:49:36.548Z,83.17
2022-10-26T17:52:03.736Z,83.20
2022-10-26T17:54:30.090Z,83.46
2022-10-26T17:56:56.477Z,83.39
2022-10-26T17:59:22.839Z,83.31
2022-10-26T18:01:49.586Z,83.18
2022-10-26T18:04:16.012Z,82.88
2022-10-26T18:06:42.378Z,82.01
2022-10-26T18:09:08.793Z,82.06
2022-10-26T18:11:35.182Z,81.35
2022-10-26T18:14:01.540Z,80.94
2022-10-26T18:16:28.807Z,80.43
2022-10-26T18:19:01.745Z,80.54
2022-10-26T18:21:30.355Z,79.84
2022-10-26T18:23:56.748Z,79.69
2022-10-26T18:26:26.078Z,79.62
2022-10-26T18:28:52.967Z,79.35
2022-10-26T18:31:21.524Z,79.01
2022-10-26T18:33:48.219Z,78.74
2022-10-26T18:36:17.409Z,78.63
2022-10-26T18:38:49.101Z,78.07
2022-10-26T18:41:17.210Z,77.86
2022-10-26T18:43:45.735Z,77.72
2022-10-26T18:46:24.287Z,78.24
2022-10-26T18:48:51.971Z,78.01
2022-10-26T18:51:20.605Z,77.90
2022-10-26T18:53:48.231Z,78.18
2022-10-26T18:56:17.569Z,78.55
2022-10-26T18:58:46.668Z,78.45
2022-10-26T19:01:19.717Z,78.55
2022-10-26T19:03:47.380Z,78.83
2022-10-26T19:06:22.455Z,78.59
2022-10-26T19:08:48.854Z,78.75
2022-10-26T19:11:17.498Z,79.35
2022-10-26T19:13:44.261Z,79.45
2022-10-26T19:16:17.509Z,80.35
2022-10-26T19:18:48.899Z,79.69
2022-10-26T19:21:19.215Z,79.92
2022-10-26T19:23:47.082Z,79.21
2022-10-26T19:26:16.266Z,79.95
2022-10-26T19:28:42.995Z,80.18
2022-10-26T19:31:11.764Z,80.83
2022-10-26T19:33:38.351Z,81.08
2022-10-26T19:36:07.697Z,81.24
2022-10-26T19:38:34.596Z,81.07
2022-10-26T19:41:06.084Z,81.29
2022-10-26T19:43:34.663Z,80.97
2022-10-26T19:46:12.855Z,81.67
2022-10-26T19:48:40.136Z,81.26
2022-10-26T19:51:07.411Z,81.22
2022-10-26T19:53:34.483Z,80.74
2022-10-26T19:56:01.780Z,81.10
2022-10-26T19:58:31.018Z,81.52
2022-10-26T20:01:01.836Z,81.89
2022-10-26T20:03:29.310Z,81.46
2022-10-26T20:06:01.146Z,82.17
2022-10-26T20:08:28.403Z,82.17
2022-10-26T20:10:56.779Z,82.61
2022-10-26T20:13:26.147Z,83.91
2022-10-26T20:15:53.065Z,83.47
2022-10-26T20:18:20.206Z,83.80
2022-10-26T20:20:46.672Z,83.46
2022-10-26T20:23:13.086Z,83.82
2022-10-26T20:25:45.438Z,84.51
2022-10-26T20:28:11.879Z,83.96
2022-10-26T20:30:38.463Z,83.88
2022-10-26T20:33:05.595Z,84.66
2022-10-26T20:35:32.834Z,84.53
2022-10-26T20:38:00.105Z,84.55
2022-10-26T20:40:27.773Z,85.07
2022-10-26T20:42:54.964Z,85.32
2022-10-26T20:45:27.514Z,86.63
2022-10-26T20:47:54.596Z,86.21
2022-10-26T20:50:26.745Z,86.49
2022-10-26T20:53:04.230Z,86.83
2022-10-26T20:55:50.905Z,86.93
2022-10-26T20:58:17.391Z,86.04
2022-10-26T21:01:27.183Z,86.91
2022-10-26T21:03:55.249Z,86.50
2022-10-26T21:06:22.169Z,86.95
2022-10-26T21:08:49.972Z,87.41
2022-10-26T21:11:17.175Z,87.60
2022-10-26T21:13:44.546Z,87.60
2022-10-26T21:16:11.094Z,87.76
2022-10-26T21:18:37.513Z,88.45
2022-10-26T21:21:04.012Z,88.17
2022-10-26T21:23:34.922Z,88.44
2022-10-26T21:26:01.594Z,88.67
2022-10-26T21:28:34.544Z,88.58
2022-10-26T21:31:06.077Z,88.89
2022-10-26T21:33:32.737Z,88.96
2022-10-26T21:36:00.586Z,89.31
2022-10-26T21:38:28.489Z,89.45
2022-10-26T21:41:06.306Z,90.35
2022-10-26T21:43:33.867Z,89.19
2022-10-26T21:46:04.537Z,89.02
2022-10-26T21:48:32.017Z,88.86
2022-10-26T21:51:00.503Z,88.87
2022-10-26T21:53:27.177Z,88.74
2022-10-26T21:56:09.661Z,89.67
2022-10-26T21:58:36.593Z,88.66
2022-10-26T22:01:07.953Z,89.51
2022-10-26T22:03:37.713Z,89.59
2022-10-26T22:06:05.347Z,89.71
2022-10-26T22:08:31.823Z,90.07
2022-10-26T22:10:58.789Z,90.84
2022-10-26T22:13:25.298Z,91.37
2022-10-26T22:16:11.849Z,92.38
2022-10-26T22:18:40.786Z,92.04
2022-10-26T22:21:08.240Z,92.07
2022-10-26T22:23:39.718Z,92.49
2022-10-26T22:26:09.511Z,92.61
2022-10-26T22:28:41.534Z,92.49
2022-10-26T22:31:15.251Z,92.94
2022-10-26T22:33:42.228Z,92.60
2022-10-26T22:36:11.059Z,92.72
2022-10-26T22:38:37.566Z,92.49
2022-10-26T22:41:04.100Z,92.36
2022-10-26T22:43:30.598Z,92.29
2022-10-26T22:46:05.710Z,93.12
2022-10-26T22:48:33.620Z,92.64
2022-10-26T22:51:11.628Z,93.71
2022-10-26T22:53:38.309Z,93.41
2022-10-26T22:56:07.155Z,93.42
2022-10-26T22:58:34.860Z,92.99
2022-10-26T23:01:09.742Z,93.50
2022-10-26T23:03:36.446Z,92.73
2022-10-26T23:06:04.285Z,92.72
2022-10-26T23:08:30.779Z,92.49
2022-10-26T23:11:02.153Z,92.47
2022-10-26T23:13:29.432Z,91.84
2022-10-26T23:15:56.127Z,91.45
2022-10-26T23:18:22.743Z,91.13
2022-10-26T23:20:50.569Z,91.01
2022-10-26T23:23:17.609Z,91.09
2022-10-26T23:25:44.355Z,91.03
2022-10-26T23:28:11.145Z,90.89
2022-10-26T23:30:37.837Z,90.68
2022-10-26T23:33:04.193Z,91.17
2022-10-26T23:35:30.613Z,91.51
2022-10-26T23:37:58.640Z,91.51
2022-10-26T23:40:25.846Z,91.70
2022-10-26T23:42:52.534Z,92.26
2022-10-26T23:45:19.069Z,93.07
2022-10-26T23:47:45.405Z,93.49
2022-10-26T23:50:12.571Z,93.38
2022-10-26T23:52:38.977Z,92.75
2022-10-26T23:55:05.985Z,92.73
2022-10-26T23:57:32.547Z,92.05
2022-10-26T23:59:58.909Z,91.62
